logo
Search for airport 
image banner adimage banner adimage banner ad
image banner ad

YMHB - Hobart

Located in Hobart, Australia

ICAO - YMHB, IATA - HBA

Data provided by Airmate  

General information

Coordinates: S42°50'10" E147°30'37"
Elevation is 13 feet MSL.
 
View others Airports in Tasmania

Operational data

Special qualification required
Current time UTC:
Current local time:
Weather
METAR: YMHB 131630Z AUTO 33007KT 9999 // NCD 15/10 Q1017 RF00.0/000.0
TAF: TAF YMHB 131403Z 1315/1412 31006KT 9999 SCT040
View NOTAMs / SUP AIP / TFR affecting this airport [VIEW]
Communications frequencies: [VIEW]

Runways:

RWY identifierQFULength (ft)Width (ft)SurfaceLDA (ft)
12135°8947148ASP
30315°8947148ASP

Airport contact information

Address: Hobart Australia

Other aviation service providers

Flight schools

Rotor Lift

Rotor Lift

Satellite view of YMHB